Time;durP1;ratioP1;P1;durP2;ratioP2;P2;SDS_P1;SDS_P2;PMS_P1;PMS_P2;Temp;Humidity;BMP_temperature;BMP_pressure;BME280_temperature;BME280_humidity;BME280_pressure;Samples;Min_cycle;Max_cycle;Signal;HPM_P1;HPM_P2
2022/06/20 00:00:38;;;;;;;7.20;6.40;;;;;;;24.48;nan;98708.16;4950702;28;20522;-76
2022/06/20 00:03:05;;;;;;;12.40;7.73;;;;;;;24.40;nan;98699.50;4949800;28;20975;-76
2022/06/20 00:05:34;;;;;;;8.33;7.53;;;;;;;24.31;nan;98693.53;4947780;28;21105;-75
2022/06/20 00:08:00;;;;;;;12.83;7.43;;;;;;;24.27;nan;98695.78;4950846;28;21123;-75
2022/06/20 00:10:30;;;;;;;10.50;8.17;;;;;;;24.24;nan;98700.75;4949687;28;20508;-74
2022/06/20 00:12:57;;;;;;;8.63;7.83;;;;;;;24.24;nan;98690.00;4950791;28;20237;-76
2022/06/20 00:15:25;;;;;;;12.57;7.90;;;;;;;24.25;nan;98691.69;4955074;28;21041;-76
2022/06/20 00:17:51;;;;;;;7.90;7.20;;;;;;;24.23;nan;98694.56;4953953;28;21007;-74
2022/06/20 00:20:17;;;;;;;10.80;8.83;;;;;;;24.18;nan;98694.34;4953934;28;20462;-74
2022/06/20 00:22:43;;;;;;;9.90;7.10;;;;;;;24.12;nan;98702.41;4953536;28;20262;-75
2022/06/20 00:25:08;;;;;;;10.03;8.00;;;;;;;24.07;nan;98694.97;4951995;28;20503;-76
2022/06/20 00:27:34;;;;;;;10.13;8.17;;;;;;;24.02;nan;98694.78;4955553;28;20265;-74
2022/06/20 00:30:00;;;;;;;16.87;7.50;;;;;;;23.99;nan;98698.69;4937105;28;20216;-75
2022/06/20 00:32:26;;;;;;;7.50;6.70;;;;;;;23.98;nan;98707.78;4952858;28;20240;-76
2022/06/20 00:34:51;;;;;;;8.60;7.60;;;;;;;23.96;nan;98709.03;4956343;28;20504;-76
2022/06/20 00:37:19;;;;;;;10.27;9.03;;;;;;;23.90;nan;98705.31;4956966;28;20201;-75
2022/06/20 00:39:48;;;;;;;9.07;7.57;;;;;;;23.80;nan;98707.56;4958008;28;20245;-74
2022/06/20 00:42:13;;;;;;;10.90;7.00;;;;;;;23.69;nan;98692.88;4955795;28;20467;-73
2022/06/20 00:44:45;;;;;;;11.40;8.07;;;;;;;23.68;nan;98688.53;4957130;28;20478;-74
2022/06/20 00:47:15;;;;;;;9.83;7.67;;;;;;;23.68;nan;98691.19;4951077;28;20333;-75
2022/06/20 00:49:49;;;;;;;11.97;8.40;;;;;;;23.61;nan;98696.56;4955530;28;20475;-76
2022/06/20 00:52:46;;;;;;;9.23;8.23;;;;;;;23.52;nan;98700.47;4955512;28;20585;-75
2022/06/20 00:55:47;;;;;;;14.40;8.37;;;;;;;23.51;nan;98709.53;4937543;28;22311;-73
2022/06/20 00:58:37;;;;;;;10.73;9.23;;;;;;;23.44;nan;98718.59;4926057;28;20999;-76
2022/06/20 01:01:03;;;;;;;11.57;8.20;;;;;;;23.32;nan;98718.34;4956882;28;21149;-73
2022/06/20 01:03:33;;;;;;;10.53;9.13;;;;;;;23.31;nan;98730.13;4955069;28;20494;-73
2022/06/20 01:06:08;;;;;;;8.90;8.00;;;;;;;23.35;nan;98726.81;4957177;28;20477;-75
2022/06/20 01:08:40;;;;;;;11.03;7.50;;;;;;;23.35;nan;98723.31;4957760;28;21000;-73
2022/06/20 01:11:13;;;;;;;10.43;8.53;;;;;;;23.36;nan;98724.97;4957880;28;21156;-73
2022/06/20 01:13:39;;;;;;;11.53;8.70;;;;;;;23.38;nan;98729.09;4957303;28;20973;-73
2022/06/20 01:16:22;;;;;;;11.13;9.60;;;;;;;23.43;nan;98736.53;4957365;28;20542;-73
2022/06/20 01:18:49;;;;;;;10.40;9.47;;;;;;;23.47;nan;98732.44;4958981;28;20200;-73
2022/06/20 01:21:21;;;;;;;12.20;7.87;;;;;;;23.45;nan;98729.13;4953954;28;20464;-75
2022/06/20 01:24:23;;;;;;;12.23;8.17;;;;;;;23.38;nan;98729.09;4955004;28;20488;-76
2022/06/20 01:27:07;;;;;;;8.63;7.67;;;;;;;23.35;nan;98736.72;4948847;28;20495;-75
2022/06/20 01:29:33;;;;;;;18.20;8.53;;;;;;;23.30;nan;98734.63;4952627;28;20465;-73
2022/06/20 01:31:59;;;;;;;11.00;9.90;;;;;;;23.28;nan;98734.03;4952681;28;20917;-73
2022/06/20 01:34:25;;;;;;;9.20;8.17;;;;;;;23.25;nan;98728.22;4953266;28;20596;-73
2022/06/20 01:39:42;;;;;;;9.57;7.20;;;;;;;23.10;nan;98731.88;4951934;28;20471;-73
2022/06/20 01:42:19;;;;;;;12.53;8.13;;;;;;;23.07;nan;98736.81;4954182;28;20900;-73
2022/06/20 01:48:09;;;;;;;9.17;7.33;;;;;;;23.08;nan;98755.34;4946574;28;20536;-73
2022/06/20 01:50:36;;;;;;;12.80;8.43;;;;;;;23.11;nan;98754.94;4951743;28;20516;-73
2022/06/20 01:53:04;;;;;;;7.93;7.00;;;;;;;23.16;nan;98757.84;4954582;28;20903;-73
2022/06/20 01:55:31;;;;;;;9.27;6.97;;;;;;;23.23;nan;98763.25;4956345;28;20491;-73
2022/06/20 01:58:06;;;;;;;9.33;8.07;;;;;;;23.28;nan;98760.00;4955590;28;20475;-75
2022/06/20 02:00:33;;;;;;;10.27;9.13;;;;;;;23.27;nan;98763.69;4952736;28;20466;-74
2022/06/20 02:03:07;;;;;;;9.00;7.47;;;;;;;23.23;nan;98765.13;4954387;28;20998;-74
2022/06/20 02:05:33;;;;;;;10.60;7.83;;;;;;;23.19;nan;98762.00;4951496;28;20827;-74
2022/06/20 02:08:00;;;;;;;;;;;;;;;23.17;nan;98764.88;4954568;28;20469;-73
2022/06/20 02:10:55;;;;;;;;;;;;;;;23.14;nan;98765.28;4957887;28;19969;-73
2022/06/20 02:13:23;;;;;;;;;;;;;;;23.14;nan;98775.16;4939563;28;20079;-74
2022/06/20 02:15:49;;;;;;;;;;;;;;;23.15;nan;98777.66;4952218;28;20104;-73
2022/06/20 02:18:16;;;;;;;;;;;;;;;23.23;nan;98782.03;4942582;28;19971;-73
2022/06/20 02:20:47;;;;;;;;;;;;;;;23.37;nan;98781.03;4959339;28;20008;-73
2022/06/20 02:23:23;;;;;;;;;;;;;;;23.60;nan;98783.41;4942287;28;20511;-75
2022/06/20 02:25:50;;;;;;;;;;;;;;;23.93;nan;98779.19;4958372;28;20336;-73
2022/06/20 02:28:20;;;;;;;;;;;;;;;24.28;nan;98782.50;4937750;28;20407;-76
2022/06/20 02:30:45;;;;;;;;;;;;;;;24.61;nan;98769.09;4944369;28;19968;-74
2022/06/20 02:33:16;;;;;;;;;;;;;;;24.89;nan;98774.19;4961222;28;20377;-73
2022/06/20 02:35:41;;;;;;;;;;;;;;;25.20;nan;98772.69;4960129;28;20430;-74
2022/06/20 02:38:07;;;;;;;;;;;;;;;25.47;nan;98781.47;4953259;28;20047;-74
2022/06/20 02:40:33;;;;;;;;;;;;;;;25.67;nan;98775.97;4962329;28;20478;-75
2022/06/20 02:43:03;;;;;;;;;;;;;;;25.83;nan;98778.19;4960789;28;20024;-75
2022/06/20 02:45:31;;;;;;;;;;;;;;;25.97;nan;98784.28;4959086;28;20027;-75
2022/06/20 02:47:59;;;;;;;;;;;;;;;26.08;nan;98781.94;4956602;28;20008;-74
2022/06/20 02:50:30;;;;;;;;;;;;;;;26.17;nan;98794.13;4960894;28;20339;-75
2022/06/20 02:53:06;;;;;;;;;;;;;;;26.26;nan;98800.88;4961854;28;20518;-73
2022/06/20 02:55:33;;;;;;;;;;;;;;;26.38;nan;98798.28;4990176;23;19996;-73
2022/06/20 02:58:00;;;;;;;;;;;;;;;26.46;nan;98808.78;4907930;29;20416;-73
2022/06/20 03:00:34;;;;;;;;;;;;;;;26.52;nan;98794.47;4921315;29;20057;-74
2022/06/20 03:03:02;;;;;;;;;;;;;;;26.57;nan;98807.25;4923761;29;19969;-74
2022/06/20 03:05:28;;;;;;;;;;;;;;;26.61;nan;98814.69;4932960;29;20424;-74
2022/06/20 03:07:53;;;;;;;;;;;;;;;26.64;nan;98806.16;4938096;29;19969;-74
2022/06/20 03:10:32;;;;;;;;;;;;;;;26.66;nan;98812.16;4941297;29;20218;-74
2022/06/20 03:12:57;;;;;;;;;;;;;;;26.66;nan;98835.59;4941325;28;20246;-73
2022/06/20 03:15:23;;;;;;;;;;;;;;;26.65;nan;98836.63;4942089;28;19989;-74
2022/06/20 03:17:49;;;;;;;;;;;;;;;26.63;nan;98836.84;4940501;29;20428;-74
2022/06/20 03:20:17;;;;;;;;;;;;;;;26.61;nan;98824.66;4939834;29;20404;-73
2022/06/20 03:22:48;;;;;;;;;;;;;;;26.58;nan;98825.91;4941676;29;19969;-73
2022/06/20 03:25:14;;;;;;;;;;;;;;;26.56;nan;98836.06;4941360;28;19993;-74
2022/06/20 03:27:40;;;;;;;;;;;;;;;26.52;nan;98842.97;4939235;29;19966;-74
2022/06/20 03:30:18;;;;;;;;;;;;;;;26.49;nan;98844.19;4919884;29;20219;-74
2022/06/20 03:32:44;;;;;;;;;;;;;;;26.46;nan;98854.56;4919946;29;19969;-74
2022/06/20 03:35:09;;;;;;;;;;;;;;;26.43;nan;98855.00;4940671;29;19981;-74
2022/06/20 03:37:37;;;;;;;;;;;;;;;26.33;nan;98860.03;4940908;29;20083;-74
2022/06/20 03:40:02;;;;;;;;;;;;;;;26.13;nan;98852.94;4934469;28;19965;-74
2022/06/20 03:42:28;;;;;;;;;;;;;;;25.92;nan;98861.34;4938940;29;19976;-75
2022/06/20 03:44:54;;;;;;;;;;;;;;;25.66;nan;98860.41;4936880;28;19985;-74
2022/06/20 03:47:24;;;;;;;;;;;;;;;25.38;nan;98880.38;4937334;28;19966;-74
2022/06/20 03:49:54;;;;;;;;;;;;;;;25.04;nan;98868.00;4939009;28;19970;-75
2022/06/20 03:52:21;;;;;;;;;;;;;;;24.75;nan;98880.00;4941169;28;20309;-74
2022/06/20 03:54:49;;;;;;;;;;;;;;;24.53;nan;98879.38;4905520;29;1083376;-75
2022/06/20 03:57:21;;;;;;;;;;;;;;;24.31;nan;98877.88;4946762;28;19969;-73
2022/06/20 04:00:00;;;;;;;;;;;;;;;24.06;nan;98873.06;4937626;28;19965;-75
2022/06/20 04:02:48;;;;;;;;;;;;;;;23.83;nan;98868.88;4939788;29;19971;-74
2022/06/20 04:05:23;;;;;;;;;;;;;;;23.60;nan;98866.50;4934123;28;19989;-74
2022/06/20 04:07:52;;;;;;;;;;;;;;;23.47;nan;98881.72;4944866;28;19964;-73
2022/06/20 04:13:26;;;;;;;;;;;;;;;23.26;nan;98872.72;4945022;28;20035;-74
2022/06/20 04:16:13;;;;;;;;;;;;;;;23.27;nan;98876.22;4937573;28;20455;-73
2022/06/20 04:18:42;;;;;;;;;;;;;;;23.28;nan;98872.53;4944096;29;20067;-74
2022/06/20 04:21:11;;;;;;;;;;;;;;;23.27;nan;98870.84;4943175;28;20023;-73
2022/06/20 04:23:55;;;;;;;;;;;;;;;23.31;nan;98864.09;4942248;29;20025;-74
2022/06/20 04:26:23;;;;;;;;;;;;;;;23.33;nan;98875.41;4945628;29;20400;-74
2022/06/20 04:28:48;;;;;;;;;;;;;;;23.36;nan;98883.91;4942718;28;19969;-74
2022/06/20 04:31:18;;;;;;;;;;;;;;;23.42;nan;98880.44;4941906;29;20001;-74
2022/06/20 04:34:09;;;;;;;;;;;;;;;23.47;nan;98882.53;4943437;28;20434;-74
2022/06/20 04:36:40;;;;;;;;;;;;;;;23.52;nan;98890.81;4940899;28;19985;-73
2022/06/20 04:39:11;;;;;;;;;;;;;;;23.54;nan;98894.09;4939866;29;20159;-74
2022/06/20 04:41:55;;;;;;;;;;;;;;;23.49;nan;98906.44;4940215;28;19984;-73
2022/06/20 04:44:43;;;;;;;;;;;;;;;23.43;nan;98913.41;4943702;28;20411;-73
2022/06/20 04:47:18;;;;;;;;;;;;;;;23.40;nan;98913.81;4942610;29;20048;-74
2022/06/20 04:49:43;;;;;;;;;;;;;;;23.42;nan;98906.41;4921307;29;20082;-73
2022/06/20 04:52:12;;;;;;;;;;;;;;;23.47;nan;98908.50;4939389;28;20084;-73
2022/06/20 04:54:38;;;;;;;;;;;;;;;23.52;nan;98906.88;4942382;29;20044;-73
2022/06/20 04:57:03;;;;;;;;;;;;;;;23.63;nan;98905.50;4919311;29;19978;-74
2022/06/20 04:59:30;;;;;;;;;;;;;;;23.81;nan;98908.47;4940256;29;20190;-73
2022/06/20 05:01:57;;;;;;;;;;;;;;;24.02;nan;98909.38;4940972;29;19969;-73
2022/06/20 05:04:26;;;;;;;;;;;;;;;24.17;nan;98914.56;4940467;28;19965;-73
2022/06/20 05:06:53;;;;;;;;;;;;;;;24.24;nan;98918.13;4937896;29;20099;-73
2022/06/20 05:09:22;;;;;;;;;;;;;;;24.28;nan;98917.50;4940947;28;19965;-73
2022/06/20 05:12:01;;;;;;;;;;;;;;;24.30;nan;98911.94;4940198;29;19989;-74
2022/06/20 05:14:45;;;;;;;;;;;;;;;24.34;nan;98912.38;4941929;29;19973;-73
2022/06/20 05:17:17;;;;;;;;;;;;;;;24.39;nan;98901.84;4941750;29;20295;-74
2022/06/20 05:19:45;;;;;;;;;;;;;;;24.44;nan;98910.97;4943598;29;19992;-74
2022/06/20 05:22:16;;;;;;;;;;;;;;;24.47;nan;98907.06;4941294;29;20052;-73
2022/06/20 05:24:44;;;;;;;;;;;;;;;24.48;nan;98917.56;4943138;28;19996;-74
2022/06/20 05:27:18;;;;;;;;;;;;;;;24.51;nan;98919.84;4941319;28;20276;-74
2022/06/20 05:29:44;;;;;;;;;;;;;;;24.56;nan;98919.25;4937878;29;20526;-73
2022/06/20 05:32:13;;;;;;;;;;;;;;;24.64;nan;98919.03;4940883;28;19999;-74
2022/06/20 05:34:49;;;;;;;;;;;;;;;24.81;nan;98922.13;4932906;28;19985;-73
2022/06/20 05:37:33;;;;;;;;;;;;;;;25.00;nan;98916.97;4918769;29;19973;-73
2022/06/20 05:40:10;;;;;;;;;;;;;;;25.16;nan;98920.09;4935337;29;19969;-73
2022/06/20 05:42:36;;;;;;;;;;;;;;;25.26;nan;98930.41;4931611;28;20025;-73
2022/06/20 05:45:02;;;;;;;;;;;;;;;25.26;nan;98929.59;4927493;29;20628;-74
2022/06/20 05:47:35;;;;;;;;;;;;;;;25.24;nan;98928.97;4927720;29;20440;-73
2022/06/20 05:50:19;;;;;;;;;;;;;;;25.37;nan;98932.47;4927012;29;19969;-73
2022/06/20 05:52:45;;;;;;;;;;;;;;;25.93;nan;98936.47;4929035;28;20036;-73
2022/06/20 05:55:14;;;;;;;;;;;;;;;26.34;nan;98932.53;4929938;28;20104;-73
2022/06/20 05:57:42;;;;;;;;;;;;;;;26.51;nan;98932.88;4935991;29;20026;-74
2022/06/20 06:00:12;;;;;;;;;;;;;;;26.54;nan;98935.13;4936554;28;20415;-74
2022/06/20 06:02:47;;;;;;;;;;;;;;;26.70;nan;98933.75;4936841;29;19976;-75
2022/06/20 06:05:12;;;;;;;;;;;;;;;26.95;nan;98941.03;4934589;29;20040;-74
2022/06/20 06:07:57;;;;;;;;;;;;;;;27.17;nan;98936.09;4933109;28;19965;-75
2022/06/20 06:10:41;;;;;;;;;;;;;;;27.74;nan;98943.00;4924152;28;20028;-75
2022/06/20 06:13:14;;;;;;;;;;;;;;;28.33;nan;98954.13;4961236;28;20070;-74
2022/06/20 06:18:57;;;;;;;;;;;;;;;28.38;nan;98961.50;4984307;28;19987;-74
2022/06/20 06:21:23;;;;;;;;;;;;;;;28.36;nan;98961.75;4966592;28;19976;-75
2022/06/20 06:23:48;;;;;;;;;;;;;;;28.22;nan;98977.31;4967586;28;20173;-74
2022/06/20 06:26:15;;;;;;;;;;;;;;;28.05;nan;98986.25;4965094;28;20553;-75
2022/06/20 06:28:41;;;;;;;;;;;;;;;28.01;nan;98975.91;4973604;28;20008;-74
2022/06/20 06:31:12;;;;;;;;;;;;;;;28.15;nan;98984.66;4970535;28;20011;-74
2022/06/20 06:33:41;;;;;;;;;;;;;;;28.58;nan;98980.19;4966252;28;19991;-71
2022/06/20 06:36:07;;;;;;;;;;;;;;;28.98;nan;98979.59;4965414;28;20920;-74
2022/06/20 06:38:45;;;;;;;;;;;;;;;29.50;nan;98982.47;4965041;28;19982;-74
2022/06/20 06:41:29;;;;;;;;;;;;;;;29.86;nan;98986.78;4953869;28;20653;-75
2022/06/20 06:43:56;;;;;;;;;;;;;;;29.78;nan;98982.56;4945982;28;19965;-74
2022/06/20 06:46:27;;;;;;;;;;;;;;;29.78;nan;98979.84;4946258;28;20435;-73
2022/06/20 06:48:52;;;;;;;;;;;;;;;30.02;nan;98987.13;4950878;28;19965;-74
2022/06/20 06:51:22;;;;;;;;;;;;;;;30.42;nan;98973.59;4950590;28;20079;-74
2022/06/20 06:53:54;;;;;;;;;;;;;;;30.85;nan;98972.22;4954001;28;20242;-74
2022/06/20 06:56:22;;;;;;;;;;;;;;;31.15;nan;98966.44;4950271;28;19977;-74
2022/06/20 06:58:56;;;;;;;;;;;;;;;31.56;nan;98972.50;4950781;28;19988;-74
2022/06/20 07:01:29;;;;;;;;;;;;;;;31.80;nan;98970.38;4948270;28;20031;-74
2022/06/20 07:03:58;;;;;;;;;;;;;;;31.86;nan;98972.09;4948457;28;20458;-74
2022/06/20 07:06:25;;;;;;;;;;;;;;;32.21;nan;98973.63;4950149;28;20180;-74
2022/06/20 07:09:04;;;;;;;;;;;;;;;32.47;nan;98980.19;4949641;28;20055;-75
2022/06/20 07:11:32;;;;;;;;;;;;;;;32.74;nan;98977.47;4949532;28;20673;-74
2022/06/20 07:14:03;;;;;;;;;;;;;;;32.88;nan;98972.41;4949776;28;20060;-75
2022/06/20 07:16:35;;;;;;;;;;;;;;;33.00;nan;98974.97;4952856;28;19980;-74
2022/06/20 07:19:01;;;;;;;;;;;;;;;32.96;nan;98984.72;4966803;28;20060;-74
2022/06/20 07:21:28;;;;;;;;;;;;;;;33.02;nan;98978.28;4956355;28;20526;-74
2022/06/20 07:23:56;;;;;;;;;;;;;;;33.04;nan;98976.13;4961690;28;19983;-74
2022/06/20 07:26:22;;;;;;;;;;;;;;;32.86;nan;98980.00;4961701;28;19995;-75
2022/06/20 07:28:47;;;;;;;;;;;;;;;32.80;nan;98990.03;4961565;28;19964;-74
2022/06/20 07:31:19;;;;;;;;;;;;;;;32.91;nan;98988.22;4959101;28;19985;-74
2022/06/20 07:33:51;;;;;;;;;;;;;;;33.05;nan;98983.19;4962490;28;19976;-74
2022/06/20 07:36:20;;;;;;;;;;;;;;;33.05;nan;98994.06;4961924;28;20475;-74
2022/06/20 07:38:51;;;;;;;;;;;;;;;33.08;nan;98990.03;4955647;28;19976;-75
2022/06/20 07:41:22;;;;;;;;;;;;;;;33.09;nan;98995.22;4961565;28;19969;-75
2022/06/20 07:44:01;;;;;;;;;;;;;;;32.98;nan;98997.00;4962338;28;19976;-74
2022/06/20 07:46:31;;;;;;;;;;;;;;;33.04;nan;99001.44;4961494;28;20015;-74
2022/06/20 07:49:00;;;;;;;;;;;;;;;33.15;nan;99006.97;4957363;28;20095;-75
2022/06/20 07:51:29;;;;;;;;;;;;;;;33.08;nan;99014.50;4960895;28;20072;-74
2022/06/20 07:54:05;;;;;;;;;;;;;;;33.18;nan;99020.84;4961173;28;19973;-75
2022/06/20 07:56:51;;;;;;;;;;;;;;;33.40;nan;99023.47;4959529;28;20241;-75
2022/06/20 07:59:33;;;;;;;;;;;;;;;33.56;nan;99031.78;4955878;28;20011;-74
2022/06/20 08:02:01;;;;;;;;;;;;;;;33.57;nan;99033.44;4958501;28;19962;-74
2022/06/20 08:04:29;;;;;;;;;;;;;;;33.35;nan;99023.47;4944124;28;20567;-74
2022/06/20 08:07:00;;;;;;;;;;;;;;;32.90;nan;99029.31;4960516;28;20320;-75
2022/06/20 08:09:31;;;;;;;;;;;;;;;32.86;nan;99036.31;4955753;28;20202;-74
2022/06/20 08:12:02;;;;;;;;;;;;;;;32.94;nan;99025.78;4957064;28;19984;-74
2022/06/20 08:14:41;;;;;;;;;;;;;;;33.09;nan;99027.88;4959862;28;19971;-74
2022/06/20 08:17:10;;;;;;;;;;;;;;;33.24;nan;99030.72;4960229;28;19968;-73
2022/06/20 08:19:36;;;;;;;;;;;;;;;33.38;nan;99019.34;4959450;28;19980;-73
2022/06/20 08:22:07;;;;;;;;;;;;;;;33.43;nan;99024.84;4958074;28;19968;-73
2022/06/20 08:24:35;;;;;;;;;;;;;;;33.51;nan;99024.34;4959560;28;20031;-73
2022/06/20 08:27:05;;;;;;;;;;;;;;;33.40;nan;99022.66;4950906;28;19965;-73
2022/06/20 08:29:38;;;;;;;;;;;;;;;33.49;nan;99023.81;4956246;28;19965;-74
2022/06/20 08:32:17;;;;;;;;;;;;;;;33.51;nan;99027.09;4951219;28;20047;-73
2022/06/20 08:34:47;;;;;;;;;;;;;;;33.68;nan;99024.25;4957095;28;20262;-74
2022/06/20 08:37:25;;;;;;;;;;;;;;;33.79;nan;99022.41;4956357;28;19973;-75
2022/06/20 08:39:57;;;;;;;;;;;;;;;33.67;nan;99017.13;4957360;28;20043;-74
2022/06/20 08:42:31;;;;;;;;;;;;;;;33.42;nan;99025.94;4957550;28;20229;-74
2022/06/20 08:45:00;;;;;;;;;;;;;;;33.30;nan;99025.28;4959499;28;20079;-74
2022/06/20 08:47:28;;;;;;;;;;;;;;;33.40;nan;99028.91;4957158;28;20419;-74
2022/06/20 08:49:53;;;;;;;;;;;;;;;33.45;nan;99028.94;4956743;28;20023;-75
2022/06/20 08:52:37;;;;;;;;;;;;;;;33.36;nan;99013.38;4939807;28;19988;-74
2022/06/20 08:55:21;;;;;;;;;;;;;;;33.31;nan;99014.16;4959887;28;20474;-75
2022/06/20 08:58:06;;;;;;;;;;;;;;;33.28;nan;99012.78;4957047;28;20052;-74
2022/06/20 09:00:33;;;;;;;;;;;;;;;33.39;nan;99016.38;4959681;28;19965;-74
2022/06/20 09:03:04;;;;;;;;;;;;;;;33.31;nan;99014.16;4957745;28;19973;-75
2022/06/20 09:05:41;;;;;;;;;;;;;;;33.14;nan;99017.03;4959341;28;19981;-72
2022/06/20 09:08:24;;;;;;;;;;;;;;;32.93;nan;99007.03;4956498;28;20517;-74
2022/06/20 09:10:52;;;;;;;;;;;;;;;33.05;nan;99004.97;4953296;28;19976;-74
2022/06/20 09:13:18;;;;;;;;;;;;;;;33.25;nan;99005.13;4955741;28;20128;-74
2022/06/20 09:15:43;;;;;;;;;;;;;;;33.43;nan;99000.34;4958670;28;20087;-75
2022/06/20 09:18:08;;;;;;;;;;;;;;;33.62;nan;98987.16;4956294;28;19965;-73
2022/06/20 09:20:33;;;;;;;;;;;;;;;33.50;nan;98988.16;4959819;28;20028;-72
2022/06/20 09:23:11;;;;;;;;;;;;;;;33.46;nan;98991.69;4957696;28;20479;-72
2022/06/20 09:25:55;;;;;;;;;;;;;;;33.55;nan;98990.13;4959493;28;19985;-72
2022/06/20 09:28:35;;;;;;;;;;;;;;;33.77;nan;98992.69;4959053;28;20438;-72
2022/06/20 09:31:06;;;;;;;;;;;;;;;33.97;nan;98993.84;4939552;28;19968;-72
2022/06/20 09:33:43;;;;;;;;;;;;;;;33.89;nan;98987.84;4958716;28;19969;-72
2022/06/20 09:36:27;;;;;;;;;;;;;;;34.00;nan;98988.72;4961536;28;20051;-73
2022/06/20 09:39:04;;;;;;;;;;;;;;;34.06;nan;98987.69;4960045;28;19973;-73
2022/06/20 09:41:43;;;;;;;;;;;;;;;34.09;nan;98991.78;4957238;28;20188;-72
2022/06/20 09:44:27;;;;;;;;;;;;;;;33.99;nan;98992.50;4960002;28;19976;-72
2022/06/20 09:47:05;;;;;;;;;;;;;;;34.06;nan;98986.88;4956439;28;20198;-72
2022/06/20 09:49:51;;;;;;;;;;;;;;;34.18;nan;98987.44;4956950;28;20004;-73
2022/06/20 09:52:33;;;;;;;;;;;;;;;34.11;nan;98981.44;4958598;28;20102;-72
2022/06/20 09:55:05;;;;;;;;;;;;;;;34.00;nan;98976.97;4954729;28;20096;-72
2022/06/20 09:57:30;;;;;;;;;;;;;;;34.00;nan;98966.06;4954925;28;20416;-73
2022/06/20 09:59:56;;;;;;;;;;;;;;;34.31;nan;98967.84;4955213;28;20004;-74
2022/06/20 10:02:29;;;;;;;;;;;;;;;34.49;nan;98963.81;4954994;28;19964;-73
2022/06/20 10:05:02;;;;;;;;;;;;;;;34.67;nan;98964.38;4957669;28;20099;-74
2022/06/20 10:07:47;;;;;;;;;;;;;;;34.58;nan;98956.75;4956455;28;19965;-74
2022/06/20 10:10:28;;;;;;;;;;;;;;;34.41;nan;98945.25;4934950;28;19969;-73
2022/06/20 10:12:53;;;;;;;;;;;;;;;34.08;nan;98941.91;4955551;28;20032;-74
2022/06/20 10:15:28;;;;;;;;;;;;;;;33.64;nan;98952.31;4958019;28;19984;-74
2022/06/20 10:18:12;;;;;;;;;;;;;;;33.72;nan;98952.63;4957956;28;19969;-71
2022/06/20 10:20:45;;;;;;;;;;;;;;;34.06;nan;98946.78;4955198;28;19969;-74
2022/06/20 10:23:16;;;;;;;;;;;;;;;34.33;nan;98943.06;4956541;28;19999;-73
2022/06/20 10:25:51;;;;;;;;;;;;;;;34.58;nan;98945.03;4957899;28;20020;-71
2022/06/20 10:28:40;;;;;;;;;;;;;;;34.64;nan;98943.13;4955624;28;20265;-71
2022/06/20 10:31:13;;;;;;;;;;;;;;;34.62;nan;98937.94;4953171;28;20057;-73
2022/06/20 10:33:45;;;;;;;;;;;;;;;34.30;nan;98944.41;4955956;28;20502;-73
2022/06/20 10:36:11;;;;;;;;;;;;;;;34.07;nan;98945.69;4960114;28;19985;-73
2022/06/20 10:38:41;;;;;;;;;;;;;;;34.04;nan;98950.84;4956799;28;20542;-73
2022/06/20 10:41:08;;;;;;;;;;;;;;;34.19;nan;98953.66;4957730;28;19996;-73
2022/06/20 10:43:44;;;;;;;;;;;;;;;34.44;nan;98947.44;4953318;28;20196;-73
2022/06/20 10:46:28;;;;;;;;;;;;;;;34.87;nan;98944.50;4958705;28;20043;-74
2022/06/20 10:48:59;;;;;;;;;;;;;;;35.12;nan;98946.41;4954259;28;19980;-73
2022/06/20 10:51:43;;;;;;;;;;;;;;;35.15;nan;98940.41;4958729;28;20004;-71
2022/06/20 10:54:15;;;;;;;;;;;;;;;35.08;nan;98937.13;4957367;28;20618;-73
2022/06/20 10:56:41;;;;;;;;;;;;;;;35.12;nan;98941.78;4959667;28;20028;-73
2022/06/20 10:59:25;;;;;;;;;;;;;;;35.24;nan;98934.13;4959097;28;19965;-74
2022/06/20 11:01:52;;;;;;;;;;;;;;;35.32;nan;98938.16;4941344;28;19969;-73
2022/06/20 11:04:17;;;;;;;;;;;;;;;35.29;nan;98936.00;4953478;28;20014;-73
2022/06/20 11:06:42;;;;;;;;;;;;;;;35.03;nan;98938.75;4955581;28;20091;-72
2022/06/20 11:09:22;;;;;;;;;;;;;;;34.64;nan;98941.19;4954110;28;20769;-73
2022/06/20 11:11:58;;;;;;;;;;;;;;;34.35;nan;98938.13;4958365;28;19996;-72
2022/06/20 11:14:24;;;;;;;;;;;;;;;34.04;nan;98959.84;4956676;28;20726;-72
2022/06/20 11:17:01;;;;;;;;;;;;;;;33.62;nan;98968.09;4958626;28;20032;-72
2022/06/20 11:19:27;;;;;;;;;;;;;;;32.98;nan;98988.84;4956076;28;19977;-73
2022/06/20 11:21:52;;;;;;;;;;;;;;;32.45;nan;98973.34;4943634;28;19980;-73
2022/06/20 11:24:17;;;;;;;;;;;;;;;32.10;nan;98977.31;4960155;28;20315;-73
2022/06/20 11:26:42;;;;;;;;;;;;;;;31.78;nan;98983.38;4960935;28;19985;-72
2022/06/20 11:29:26;;;;;;;;;;;;;;;31.59;nan;98965.75;4959731;28;19988;-73
2022/06/20 11:32:10;;;;;;;;;;;;;;;31.47;nan;98974.03;4960025;28;19965;-73
2022/06/20 11:34:58;;;;;;;;;;;;;;;31.46;nan;98978.63;4959793;28;20431;-73
2022/06/20 11:37:24;;;;;;;;;;;;;;;31.48;nan;98991.94;4959229;28;20436;-73
2022/06/20 11:40:08;;;;;;;;;;;;;;;31.45;nan;98992.44;4958837;28;20039;-74
2022/06/20 11:42:52;;;;;;;;;;;;;;;31.29;nan;99005.75;4959823;28;19961;-74
2022/06/20 11:45:33;;;;;;;;;;;;;;;31.02;nan;98999.34;4960919;28;20422;-73
2022/06/20 11:48:08;;;;;;;;;;;;;;;30.68;nan;99004.69;4960198;28;19992;-73
2022/06/20 11:50:46;;;;;;;;;;;;;;;30.60;nan;99000.50;4956764;28;19960;-73
2022/06/20 11:53:17;;;;;;;;;;;;;;;30.70;nan;99002.53;4957506;28;19989;-74
2022/06/20 11:55:48;;;;;;;;;;;;;;;30.71;nan;99003.38;4954722;28;20027;-74
2022/06/20 11:58:18;;;;;;;;;;;;;;;30.72;nan;99005.03;4955425;28;20403;-72
2022/06/20 12:00:43;;;;;;;;;;;;;;;30.76;nan;99007.00;4955093;28;19965;-73
2022/06/20 12:03:30;;;;;;;;;;;;;;;30.65;nan;99006.00;4960650;28;20036;-73
2022/06/20 12:06:03;;;;;;;;;;;;;;;30.66;nan;99006.81;4957210;28;19981;-73
2022/06/20 12:08:34;;;;;;;;;;;;;;;30.58;nan;98994.47;4938844;28;20179;-74
2022/06/20 12:11:03;;;;;;;;;;;;;;;30.53;nan;99007.94;4960236;28;19978;-72
2022/06/20 12:13:45;;;;;;;;;;;;;;;30.62;nan;99016.50;4961725;28;20379;-73
2022/06/20 12:16:21;;;;;;;;;;;;;;;30.63;nan;99018.97;4961677;28;20347;-73
2022/06/20 12:24:34;;;;;;;;;;;;;;;30.82;nan;99008.78;4961103;28;19965;-72
2022/06/20 12:26:59;;;;;;;;;;;;;;;30.90;nan;99010.25;4960758;28;20347;-73
2022/06/20 12:29:25;;;;;;;;;;;;;;;31.05;nan;99010.50;4961124;28;19969;-72
2022/06/20 12:31:55;;;;;;;;;;;;;;;31.14;nan;99018.25;4959699;28;19984;-74
2022/06/20 12:34:23;;;;;;;;;;;;;;;31.09;nan;99022.53;4962089;28;20019;-72
2022/06/20 12:37:00;;;;;;;;;;;;;;;31.03;nan;99026.22;4961434;28;19965;-72
2022/06/20 12:39:27;;;;;;;;;;;;;;;30.84;nan;99025.63;4956239;28;20462;-72
2022/06/20 12:42:00;;;;;;;;;;;;;;;30.62;nan;99036.31;4960925;28;19969;-72
2022/06/20 12:44:45;;;;;;;;;;;;;;;30.48;nan;99026.81;4941407;28;20415;-72
2022/06/20 12:47:10;;;;;;;;;;;;;;;30.31;nan;99043.00;4957101;28;20262;-72
2022/06/20 12:49:56;;;;;;;;;;;;;;;30.31;nan;99044.91;4960186;28;20339;-73
2022/06/20 12:52:33;;;;;;;;;;;;;;;30.20;nan;99041.94;4961043;28;19989;-73
2022/06/20 12:54:59;;;;;;;;;;;;;;;30.19;nan;99029.47;4956042;28;19981;-72
2022/06/20 12:57:30;;;;;;;;;;;;;;;30.27;nan;99041.00;4959716;28;19969;-73
2022/06/20 13:00:14;;;;;;;;;;;;;;;30.45;nan;99042.75;4974298;28;20400;-73
2022/06/20 13:02:58;;;;;;;;;;;;;;;30.41;nan;99059.47;4956727;28;19984;-72
2022/06/20 13:05:42;;;;;;;;;;;;;;;30.15;nan;99063.50;4957704;28;19981;-73
2022/06/20 13:08:17;;;;;;;;;;;;;;;29.82;nan;99057.91;4960090;28;20604;-72
2022/06/20 13:11:01;;;;;;;;;;;;;;;29.64;nan;99054.25;4958908;28;20011;-73
2022/06/20 13:13:38;;;;;;;;;;;;;;;29.33;nan;99060.81;4960799;28;19997;-72
2022/06/20 13:16:15;;;;;;;;;;;;;;;29.06;nan;99063.09;4957855;28;19985;-74
2022/06/20 13:18:43;;;;;;;;;;;;;;;28.85;nan;99057.13;4956975;28;20107;-72
2022/06/20 13:21:31;;;;;;;;;;;;;;;28.87;nan;99062.31;4941977;28;19972;-72
2022/06/20 13:24:14;;;;;;;;;;;;;;;29.07;nan;99060.16;4960645;28;20420;-72
2022/06/20 13:26:46;;;;;;;;;;;;;;;29.33;nan;99067.03;4937148;28;21376;-73
2022/06/20 13:29:29;;;;;;;;;;;;;;;29.54;nan;99064.81;4957353;28;20067;-73
2022/06/20 13:32:02;;;;;;;;;;;;;;;29.63;nan;99065.31;4961231;28;20084;-73
2022/06/20 13:34:53;;;;;;;;;;;;;;;29.60;nan;99063.88;4959846;28;19979;-74
2022/06/20 13:37:25;;;;;;;;;;;;;;;29.55;nan;99085.41;4953229;28;20517;-74